createdAt,value
2018-02-10T00:00:45.645Z,97.60
2018-02-10T00:01:45.605Z,95.30
2018-02-10T00:02:45.584Z,102.20
2018-02-10T00:03:45.516Z,98.90
2018-02-10T00:04:45.474Z,94.00
2018-02-10T00:05:45.429Z,97.10
2018-02-10T00:06:45.386Z,101.70
2018-02-10T00:07:45.342Z,103.80
2018-02-10T00:08:45.300Z,104.60
2018-02-10T00:09:45.256Z,99.90
2018-02-10T00:10:45.213Z,101.20
2018-02-10T00:11:45.170Z,101.20
2018-02-10T00:12:45.131Z,93.00
2018-02-10T00:13:45.082Z,98.30
2018-02-10T00:14:45.039Z,94.60
2018-02-10T00:15:44.995Z,97.90
2018-02-10T00:16:44.951Z,98.70
2018-02-10T00:17:44.907Z,98.60
2018-02-10T00:18:44.865Z,102.60
2018-02-10T00:19:44.825Z,100.40
2018-02-10T00:20:44.779Z,99.10
2018-02-10T00:21:44.738Z,102.60
2018-02-10T00:22:44.698Z,100.80
2018-02-10T00:23:44.657Z,95.20
2018-02-10T00:24:44.605Z,102.90
2018-02-10T00:25:44.607Z,99.90
2018-02-10T00:26:44.519Z,98.70
2018-02-10T00:27:44.500Z,102.10
2018-02-10T00:28:44.429Z,107.20
2018-02-10T00:29:44.386Z,102.30
2018-02-10T00:30:44.353Z,102.40
2018-02-10T00:31:44.306Z,100.80
2018-02-10T00:32:44.256Z,102.00
2018-02-10T00:33:44.216Z,102.20
2018-02-10T00:34:44.176Z,103.20
2018-02-10T00:35:44.125Z,96.90
2018-02-10T00:36:44.083Z,100.80
2018-02-10T00:37:44.039Z,103.40
2018-02-10T00:38:43.997Z,98.10
2018-02-10T00:39:43.997Z,107.40
2018-02-10T00:40:43.915Z,99.60
2018-02-10T00:41:43.868Z,99.90
2018-02-10T00:42:43.822Z,105.10
2018-02-10T00:43:43.779Z,105.10
2018-02-10T00:44:43.737Z,106.60
2018-02-10T00:45:43.690Z,101.70
2018-02-10T00:46:43.651Z,97.30
2018-02-10T00:47:43.603Z,104.70
2018-02-10T00:48:43.562Z,108.80
2018-02-10T00:49:43.523Z,105.90
2018-02-10T00:50:43.474Z,99.50
2018-02-10T00:51:43.427Z,106.70
2018-02-10T00:52:43.393Z,108.90
2018-02-10T00:53:43.342Z,107.70
2018-02-10T00:54:43.307Z,99.70
2018-02-10T00:55:43.254Z,102.60
2018-02-10T00:56:43.216Z,104.40
2018-02-10T00:57:43.167Z,103.50
2018-02-10T00:58:43.124Z,105.70
2018-02-10T00:59:43.084Z,105.90
2018-02-10T01:00:43.041Z,100.50
2018-02-10T01:01:42.997Z,104.30
2018-02-10T01:02:42.952Z,108.10
2018-02-10T01:03:42.907Z,107.00
2018-02-10T01:04:42.865Z,102.60
2018-02-10T01:05:42.824Z,100.70
2018-02-10T01:06:42.777Z,104.80
2018-02-10T01:07:42.735Z,112.30
2018-02-10T01:08:42.697Z,107.30
2018-02-10T01:09:42.647Z,110.10
2018-02-10T01:10:42.608Z,111.10
2018-02-10T01:11:42.558Z,102.70
2018-02-10T01:12:42.524Z,110.50
2018-02-10T01:13:42.472Z,109.10
2018-02-10T01:14:42.442Z,102.00
2018-02-10T01:15:42.383Z,108.40
2018-02-10T01:16:42.343Z,105.40
2018-02-10T01:17:42.299Z,107.60
2018-02-10T01:18:42.255Z,105.20
2018-02-10T01:19:42.224Z,106.30
2018-02-10T01:20:42.169Z,113.00
2018-02-10T01:21:42.125Z,109.40
2018-02-10T01:22:42.080Z,111.00
2018-02-10T01:23:42.038Z,104.10
2018-02-10T01:24:42.002Z,101.80
2018-02-10T01:25:41.957Z,107.50
2018-02-10T01:26:41.910Z,109.60
2018-02-10T01:27:41.864Z,107.50
2018-02-10T01:28:41.832Z,113.70
2018-02-10T01:29:41.777Z,110.40
2018-02-10T01:30:41.733Z,111.30
2018-02-10T01:31:41.693Z,109.40
2018-02-10T01:32:41.647Z,114.80
2018-02-10T01:33:41.601Z,112.50
2018-02-10T01:34:41.558Z,118.70
2018-02-10T01:35:41.513Z,114.00
2018-02-10T01:36:41.470Z,116.20
2018-02-10T01:37:41.480Z,109.50
2018-02-10T01:38:41.380Z,109.30
2018-02-10T01:39:41.339Z,114.70
2018-02-10T01:40:41.295Z,112.40
2018-02-10T01:41:41.250Z,111.60
2018-02-10T01:42:41.211Z,112.40
2018-02-10T01:43:41.167Z,113.40
2018-02-10T01:44:41.120Z,111.20
2018-02-10T01:45:41.104Z,114.30
2018-02-10T01:46:41.036Z,104.80
2018-02-10T01:47:40.991Z,109.50
2018-02-10T01:48:40.950Z,105.10
2018-02-10T01:49:40.902Z,111.50
2018-02-10T01:50:40.862Z,108.20
2018-02-10T01:51:40.825Z,108.70
2018-02-10T01:52:40.778Z,114.60
2018-02-10T01:53:40.728Z,109.00
2018-02-10T01:54:40.693Z,113.20
2018-02-10T01:55:40.650Z,110.60
2018-02-10T01:56:40.597Z,108.50
2018-02-10T01:57:40.554Z,105.80
2018-02-10T01:58:40.511Z,112.80
2018-02-10T01:59:40.466Z,110.20
2018-02-10T02:00:40.423Z,105.50
2018-02-10T02:01:40.380Z,111.10
2018-02-10T02:02:40.339Z,106.20
2018-02-10T02:03:40.292Z,116.60
2018-02-10T02:04:40.249Z,117.10
2018-02-10T02:05:40.204Z,113.10
2018-02-10T02:06:40.164Z,105.90
2018-02-10T02:07:40.123Z,108.60
2018-02-10T02:08:40.075Z,112.20
2018-02-10T02:09:40.030Z,109.50
2018-02-10T02:10:39.987Z,113.90
2018-02-10T02:11:39.947Z,112.20
2018-02-10T02:12:39.907Z,112.10
2018-02-10T02:13:39.856Z,110.10
2018-02-10T02:14:39.812Z,109.90
2018-02-10T02:15:39.768Z,110.70
2018-02-10T02:16:39.726Z,117.90
2018-02-10T02:17:39.682Z,109.40
2018-02-10T02:18:39.639Z,108.20
2018-02-10T02:19:39.608Z,114.70
2018-02-10T02:20:39.553Z,108.80
2018-02-10T02:21:39.509Z,106.50
2018-02-10T02:22:39.483Z,109.40
2018-02-10T02:23:39.421Z,111.60
2018-02-10T02:24:39.376Z,113.80
2018-02-10T02:25:39.333Z,114.80
2018-02-10T02:26:39.289Z,109.40
2018-02-10T02:27:39.246Z,110.80
2018-02-10T02:28:39.202Z,112.90
2018-02-10T02:29:39.158Z,111.20
2018-02-10T02:30:39.116Z,109.60
2018-02-10T02:31:39.075Z,109.50
2018-02-10T02:32:39.032Z,112.10
2018-02-10T02:33:38.984Z,107.30
2018-02-10T02:34:38.944Z,106.80
2018-02-10T02:35:38.896Z,113.90
2018-02-10T02:36:38.852Z,112.40
2018-02-10T02:37:38.815Z,116.00
2018-02-10T02:38:38.774Z,109.10
2018-02-10T02:39:38.728Z,113.90
2018-02-10T02:40:38.678Z,107.90
2018-02-10T02:41:38.636Z,120.40
2018-02-10T02:42:38.593Z,110.00
2018-02-10T02:43:38.546Z,116.40
2018-02-10T02:44:38.502Z,110.10
2018-02-10T02:45:38.460Z,110.90
2018-02-10T02:46:38.415Z,110.80
2018-02-10T02:47:38.374Z,111.60
2018-02-10T02:48:38.335Z,112.20
2018-02-10T02:49:38.293Z,113.60
2018-02-10T02:50:38.242Z,115.20
2018-02-10T02:51:38.207Z,109.90
2018-02-10T02:52:38.154Z,113.10
2018-02-10T02:53:38.111Z,114.10
2018-02-10T02:54:38.077Z,111.70
2018-02-10T02:55:38.026Z,117.70
2018-02-10T02:56:37.979Z,118.00
2018-02-10T02:57:37.934Z,113.80
2018-02-10T02:58:37.893Z,117.20
2018-02-10T02:59:37.858Z,110.10
2018-02-10T03:00:37.815Z,110.30
2018-02-10T03:01:37.760Z,112.80
2018-02-10T03:02:37.718Z,116.30
2018-02-10T03:03:37.674Z,112.80
2018-02-10T03:04:37.630Z,114.90
2018-02-10T03:05:37.585Z,112.20
2018-02-10T03:06:37.541Z,108.50
2018-02-10T03:07:37.499Z,112.70
2018-02-10T03:08:37.455Z,112.60
2018-02-10T03:09:37.420Z,112.60
2018-02-10T03:10:37.369Z,114.40
2018-02-10T03:11:37.322Z,112.60
2018-02-10T03:12:37.287Z,116.60
2018-02-10T03:13:37.238Z,116.40
2018-02-10T03:14:37.191Z,118.70
2018-02-10T03:15:37.149Z,109.80
2018-02-10T03:16:37.108Z,112.60
2018-02-10T03:17:37.059Z,113.20
2018-02-10T03:18:37.017Z,116.80
2018-02-10T03:19:36.980Z,113.60
2018-02-10T03:20:36.932Z,111.30
2018-02-10T03:21:36.887Z,112.00
2018-02-10T03:22:36.842Z,116.60
2018-02-10T03:23:36.799Z,114.20
2018-02-10T03:24:36.754Z,110.50
2018-02-10T03:25:36.713Z,119.60
2018-02-10T03:26:36.669Z,113.70
2018-02-10T03:27:36.623Z,112.40
2018-02-10T03:28:36.582Z,114.50
2018-02-10T03:29:36.548Z,113.40
2018-02-10T03:30:36.492Z,119.20
2018-02-10T03:31:36.455Z,109.10
2018-02-10T03:32:36.404Z,118.10
2018-02-10T03:33:36.382Z,111.90
2018-02-10T03:34:36.314Z,110.30
2018-02-10T03:35:36.274Z,112.20
2018-02-10T03:36:36.234Z,111.80
2018-02-10T03:37:36.186Z,109.40
2018-02-10T03:38:36.141Z,106.40
2018-02-10T03:39:36.095Z,118.70
2018-02-10T03:40:36.053Z,114.60
2018-02-10T03:41:36.009Z,113.70
2018-02-10T03:42:35.965Z,115.30
2018-02-10T03:43:35.922Z,116.90
2018-02-10T03:44:35.879Z,114.60
2018-02-10T03:45:35.835Z,113.80
2018-02-10T03:46:35.791Z,123.20
2018-02-10T03:47:35.749Z,109.10
2018-02-10T03:48:35.703Z,114.90
2018-02-10T03:49:35.661Z,115.40
2018-02-10T03:50:35.623Z,114.00
2018-02-10T03:51:35.572Z,112.60
2018-02-10T03:52:35.530Z,111.30
2018-02-10T03:53:35.484Z,113.50
2018-02-10T03:54:35.443Z,112.50
2018-02-10T03:55:35.398Z,110.70
2018-02-10T03:56:35.360Z,111.50
2018-02-10T03:57:35.308Z,115.70
2018-02-10T03:58:35.266Z,113.40
2018-02-10T03:59:35.222Z,114.10
2018-02-10T04:00:35.180Z,114.90
2018-02-10T04:01:35.135Z,113.60
2018-02-10T04:02:35.092Z,112.00
2018-02-10T04:03:35.059Z,113.40
2018-02-10T04:04:35.018Z,109.10
2018-02-10T04:05:34.962Z,114.10
2018-02-10T04:06:34.917Z,117.30
2018-02-10T04:07:34.873Z,113.50
2018-02-10T04:08:34.829Z,108.40
2018-02-10T04:09:34.787Z,112.30
2018-02-10T04:10:34.746Z,109.40
2018-02-10T04:11:34.705Z,119.40
2018-02-10T04:12:34.659Z,111.60
2018-02-10T04:13:34.612Z,109.70
2018-02-10T04:14:34.568Z,107.30
2018-02-10T04:15:34.523Z,108.20
2018-02-10T04:16:34.495Z,113.80
2018-02-10T04:17:34.439Z,110.50
2018-02-10T04:18:34.396Z,113.30
2018-02-10T04:19:34.351Z,108.40
2018-02-10T04:20:34.308Z,112.60
2018-02-10T04:21:34.263Z,113.60
2018-02-10T04:22:34.220Z,115.50
2018-02-10T04:23:34.180Z,108.00
2018-02-10T04:24:34.135Z,114.80
2018-02-10T04:25:34.091Z,110.10
2018-02-10T04:26:34.048Z,112.70
2018-02-10T04:27:34.004Z,117.10
2018-02-10T04:28:33.959Z,111.40
2018-02-10T04:29:33.916Z,107.30
2018-02-10T04:30:33.872Z,117.60
2018-02-10T04:31:33.831Z,116.50
2018-02-10T04:32:33.784Z,112.30
2018-02-10T04:33:33.743Z,104.50
2018-02-10T04:34:33.695Z,110.80
2018-02-10T04:35:33.664Z,107.00
2018-02-10T04:36:33.611Z,111.50
2018-02-10T04:37:33.568Z,112.60
2018-02-10T04:38:33.523Z,107.50
2018-02-10T04:39:33.481Z,115.10
2018-02-10T04:40:33.439Z,111.50
2018-02-10T04:41:33.393Z,112.50
2018-02-10T04:42:33.350Z,114.50
2018-02-10T04:43:33.308Z,118.20
2018-02-10T04:44:33.279Z,110.90
2018-02-10T04:45:33.220Z,111.90
2018-02-10T04:46:33.178Z,114.00
2018-02-10T04:47:33.132Z,113.30
2018-02-10T04:48:33.094Z,112.30
2018-02-10T04:49:33.047Z,111.10
2018-02-10T04:50:33.001Z,108.70
2018-02-10T04:51:32.958Z,112.50
2018-02-10T04:52:32.916Z,109.70
2018-02-10T04:53:32.883Z,109.10
2018-02-10T04:54:32.828Z,111.20
2018-02-10T04:55:32.790Z,111.00
2018-02-10T04:56:32.746Z,108.30
2018-02-10T04:57:32.697Z,108.20
2018-02-10T04:58:32.664Z,109.20
2018-02-10T04:59:32.609Z,112.50
2018-02-10T05:00:32.566Z,110.30
2018-02-10T05:01:32.519Z,108.70
2018-02-10T05:02:32.480Z,103.60
2018-02-10T05:03:32.437Z,111.50
2018-02-10T05:04:32.391Z,109.10
2018-02-10T05:05:32.347Z,113.00
2018-02-10T05:06:32.310Z,114.90
2018-02-10T05:07:32.266Z,117.70
2018-02-10T05:08:32.219Z,111.60
2018-02-10T05:09:32.173Z,112.60
2018-02-10T05:10:32.133Z,108.40
2018-02-10T05:11:32.082Z,110.10
2018-02-10T05:12:32.038Z,107.20
2018-02-10T05:13:31.997Z,112.40
2018-02-10T05:14:31.952Z,106.30
2018-02-10T05:15:31.914Z,108.30
2018-02-10T05:16:31.867Z,111.10
2018-02-10T05:17:31.821Z,113.90
2018-02-10T05:18:31.777Z,110.90
2018-02-10T05:19:31.736Z,111.40
2018-02-10T05:20:31.691Z,110.70
2018-02-10T05:21:31.665Z,109.80
2018-02-10T05:22:31.605Z,109.40
2018-02-10T05:23:31.561Z,111.00
2018-02-10T05:24:31.516Z,109.00
2018-02-10T05:25:31.473Z,110.90
2018-02-10T05:26:31.430Z,107.10
2018-02-10T05:27:31.388Z,112.20
2018-02-10T05:28:31.348Z,112.20
2018-02-10T05:29:31.298Z,111.40
2018-02-10T05:30:31.255Z,107.60
2018-02-10T05:31:31.212Z,108.20
2018-02-10T05:32:31.169Z,115.10
2018-02-10T05:33:31.125Z,109.90
2018-02-10T05:34:31.082Z,113.20
2018-02-10T05:35:31.038Z,103.90
2018-02-10T05:36:30.997Z,117.90
2018-02-10T05:37:30.949Z,110.40
2018-02-10T05:38:30.916Z,110.50
2018-02-10T05:39:30.865Z,110.00
2018-02-10T05:40:30.820Z,106.70
2018-02-10T05:41:30.780Z,113.10
2018-02-10T05:42:30.732Z,107.10
2018-02-10T05:43:30.690Z,110.20
2018-02-10T05:44:30.646Z,110.30
2018-02-10T05:45:30.601Z,109.00
2018-02-10T05:46:30.566Z,112.70
2018-02-10T05:47:30.523Z,110.20
2018-02-10T05:48:30.477Z,109.80
2018-02-10T05:49:30.426Z,104.00
2018-02-10T05:50:30.394Z,107.40
2018-02-10T05:51:30.338Z,109.60
2018-02-10T05:52:30.299Z,109.20
2018-02-10T05:53:30.261Z,107.40
2018-02-10T05:54:30.208Z,107.70
2018-02-10T05:55:30.170Z,110.60
2018-02-10T05:56:30.133Z,108.90
2018-02-10T05:57:30.082Z,111.90
2018-02-10T05:58:30.038Z,112.60
2018-02-10T05:59:29.992Z,103.10
2018-02-10T06:00:29.952Z,109.60
2018-02-10T06:01:29.903Z,108.40
2018-02-10T06:02:29.866Z,107.80
2018-02-10T06:03:29.837Z,101.00
2018-02-10T06:04:29.778Z,102.00
2018-02-10T06:05:29.739Z,112.80
2018-02-10T06:06:29.687Z,111.30
2018-02-10T06:07:29.647Z,106.90
2018-02-10T06:08:29.604Z,109.40
2018-02-10T06:09:29.573Z,104.30
2018-02-10T06:10:29.515Z,104.50
2018-02-10T06:11:29.469Z,109.40
2018-02-10T06:12:29.427Z,115.00
2018-02-10T06:13:29.389Z,102.60
2018-02-10T06:14:29.335Z,109.80
2018-02-10T06:15:29.320Z,110.30
2018-02-10T06:16:29.248Z,107.00
2018-02-10T06:17:29.207Z,109.10
2018-02-10T06:18:29.161Z,110.40
2018-02-10T06:19:29.121Z,109.00
2018-02-10T06:20:29.073Z,112.50
2018-02-10T06:21:29.029Z,111.20
2018-02-10T06:22:28.986Z,111.30
2018-02-10T06:23:28.944Z,107.00
2018-02-10T06:24:28.899Z,109.70
2018-02-10T06:25:28.854Z,107.50
2018-02-10T06:26:28.812Z,106.50
2018-02-10T06:27:28.768Z,108.80
2018-02-10T06:28:28.726Z,108.50
2018-02-10T06:29:28.680Z,109.00
2018-02-10T06:30:28.643Z,102.20
2018-02-10T06:31:28.593Z,111.40
2018-02-10T06:32:28.559Z,108.90
2018-02-10T06:33:28.506Z,108.30
2018-02-10T06:34:28.466Z,105.90
2018-02-10T06:35:28.418Z,109.00
2018-02-10T06:36:28.378Z,106.50
2018-02-10T06:37:28.335Z,104.80
2018-02-10T06:38:28.287Z,106.40
2018-02-10T06:39:28.249Z,110.40
2018-02-10T06:40:28.198Z,107.70
2018-02-10T06:41:28.164Z,105.00
2018-02-10T06:42:28.112Z,106.50
2018-02-10T06:43:28.072Z,111.40
2018-02-10T06:44:28.029Z,106.60
2018-02-10T06:45:27.982Z,106.80
2018-02-10T06:46:27.952Z,107.80
2018-02-10T06:47:27.899Z,103.60
2018-02-10T06:48:27.870Z,111.60
2018-02-10T06:49:27.810Z,108.00
2018-02-10T06:50:27.769Z,100.80
2018-02-10T06:51:27.722Z,109.80
2018-02-10T06:52:27.683Z,102.50
2018-02-10T06:53:27.638Z,104.20
2018-02-10T06:54:27.594Z,105.70
2018-02-10T06:55:27.560Z,103.50
2018-02-10T06:56:27.505Z,104.30
2018-02-10T06:57:27.477Z,103.40
2018-02-10T06:58:27.416Z,102.50
2018-02-10T06:59:27.379Z,105.40
2018-02-10T07:00:27.327Z,107.10
2018-02-10T07:01:27.288Z,107.00
2018-02-10T07:02:27.243Z,108.10
2018-02-10T07:03:27.200Z,104.30
2018-02-10T07:04:27.152Z,103.30
2018-02-10T07:05:27.131Z,102.40
2018-02-10T07:06:27.064Z,102.30
2018-02-10T07:07:27.029Z,106.90
2018-02-10T07:08:26.984Z,100.70
2018-02-10T07:09:26.937Z,106.60
2018-02-10T07:10:26.895Z,108.10
2018-02-10T07:11:26.845Z,107.30
2018-02-10T07:12:26.806Z,106.40
2018-02-10T07:13:26.762Z,106.10
2018-02-10T07:14:26.719Z,103.90
2018-02-10T07:15:26.685Z,103.90
2018-02-10T07:16:26.631Z,107.80
2018-02-10T07:17:26.593Z,108.70
2018-02-10T07:18:26.553Z,103.40
2018-02-10T07:19:26.505Z,105.00
2018-02-10T07:20:26.469Z,106.00
2018-02-10T07:21:26.417Z,103.40
2018-02-10T07:22:26.376Z,109.30
2018-02-10T07:23:26.326Z,103.80
2018-02-10T07:24:26.286Z,101.30
2018-02-10T07:25:26.243Z,108.80
2018-02-10T07:26:26.202Z,102.60
2018-02-10T07:27:26.152Z,104.60
2018-02-10T07:28:26.105Z,108.20
2018-02-10T07:29:26.062Z,104.80
2018-02-10T07:30:26.029Z,110.00
2018-02-10T07:31:25.981Z,105.30
2018-02-10T07:32:25.939Z,106.90
2018-02-10T07:33:25.896Z,107.10
2018-02-10T07:34:25.844Z,104.00
2018-02-10T07:35:25.835Z,101.20
2018-02-10T07:36:25.761Z,107.70
2018-02-10T07:37:25.733Z,106.50
2018-02-10T07:38:25.673Z,105.20
2018-02-10T07:39:25.626Z,103.90
2018-02-10T07:40:25.605Z,105.20
2018-02-10T07:41:25.547Z,104.50
2018-02-10T07:42:25.496Z,106.90
2018-02-10T07:43:25.484Z,107.70
2018-02-10T07:44:25.422Z,106.10
2018-02-10T07:45:25.406Z,100.20
2018-02-10T07:46:25.335Z,107.50
2018-02-10T07:47:25.330Z,108.90
2018-02-10T07:48:25.245Z,106.40
2018-02-10T07:49:25.202Z,103.30
2018-02-10T07:50:25.167Z,103.60
2018-02-10T07:51:25.112Z,99.40
2018-02-10T07:52:25.060Z,102.90
2018-02-10T07:53:25.027Z,102.70
2018-02-10T07:54:24.979Z,109.30
2018-02-10T07:55:24.943Z,99.90
2018-02-10T07:56:24.885Z,97.00
2018-02-10T07:57:24.843Z,98.70
2018-02-10T07:58:24.801Z,101.40
2018-02-10T07:59:24.758Z,101.00
2018-02-10T08:00:24.727Z,104.90
2018-02-10T08:01:24.669Z,105.70
2018-02-10T08:02:24.627Z,104.50
2018-02-10T08:03:24.582Z,103.00
2018-02-10T08:04:24.545Z,106.80
2018-02-10T08:05:24.500Z,98.50
2018-02-10T08:06:24.454Z,104.10
2018-02-10T08:07:24.411Z,100.80
2018-02-10T08:08:24.364Z,97.60
2018-02-10T08:09:24.324Z,101.00
2018-02-10T08:10:24.279Z,103.80
2018-02-10T08:11:24.239Z,99.90
2018-02-10T08:12:24.196Z,103.80
2018-02-10T08:13:24.152Z,102.80
2018-02-10T08:14:24.106Z,102.10
2018-02-10T08:15:24.073Z,101.30
2018-02-10T08:16:24.020Z,96.80
2018-02-10T08:17:24.005Z,100.40
2018-02-10T08:18:23.935Z,93.90
2018-02-10T08:19:23.892Z,104.50
2018-02-10T08:20:23.879Z,97.00
2018-02-10T08:21:23.802Z,99.90
2018-02-10T08:22:23.769Z,99.40
2018-02-10T08:23:23.717Z,98.40
2018-02-10T08:24:23.696Z,100.90
2018-02-10T08:25:23.638Z,100.80
2018-02-10T08:26:23.588Z,96.40
2018-02-10T08:27:23.551Z,99.40
2018-02-10T08:28:23.508Z,101.10
2018-02-10T08:29:23.484Z,107.80
2018-02-10T08:30:23.411Z,108.30
2018-02-10T08:31:23.410Z,103.40
2018-02-10T08:32:23.350Z,94.80
2018-02-10T08:33:23.284Z,98.10
2018-02-10T08:34:23.263Z,97.70
2018-02-10T08:35:23.210Z,97.90
2018-02-10T08:36:23.159Z,109.80
2018-02-10T08:37:23.121Z,105.60
2018-02-10T08:38:23.073Z,106.80
2018-02-10T08:39:23.034Z,104.70
2018-02-10T08:40:22.999Z,102.10
2018-02-10T08:41:22.938Z,97.40
2018-02-10T08:42:22.896Z,101.10
2018-02-10T08:43:22.858Z,97.20
2018-02-10T08:44:22.817Z,92.20
2018-02-10T08:45:22.778Z,92.80
2018-02-10T08:46:22.727Z,102.00
2018-02-10T08:47:22.679Z,99.80
2018-02-10T08:48:22.639Z,96.50
2018-02-10T08:49:22.601Z,95.80
2018-02-10T08:50:22.552Z,95.80
2018-02-10T08:51:22.507Z,100.00
2018-02-10T08:52:22.465Z,105.10
2018-02-10T08:53:22.423Z,103.10
2018-02-10T08:54:22.380Z,95.10
2018-02-10T08:55:22.401Z,103.20
2018-02-10T08:56:22.295Z,104.30
2018-02-10T08:57:22.258Z,98.80
2018-02-10T08:58:22.206Z,94.60
2018-02-10T08:59:22.165Z,99.80
2018-02-10T09:00:22.119Z,100.30
2018-02-10T09:01:22.077Z,95.70
2018-02-10T09:02:22.044Z,99.10
2018-02-10T09:03:21.995Z,101.00
2018-02-10T09:04:21.951Z,97.00
2018-02-10T09:05:21.921Z,100.50
2018-02-10T09:06:21.872Z,97.30
2018-02-10T09:07:21.821Z,99.60
2018-02-10T09:08:21.782Z,103.20
2018-02-10T09:09:21.736Z,95.00
2018-02-10T09:10:21.693Z,100.50
2018-02-10T09:11:21.653Z,101.00
2018-02-10T09:12:21.610Z,104.40
2018-02-10T09:13:21.567Z,96.00
2018-02-10T09:14:21.525Z,105.20
2018-02-10T09:15:21.507Z,99.60
2018-02-10T09:16:21.440Z,99.40
2018-02-10T09:17:21.410Z,100.70
2018-02-10T09:18:21.354Z,96.90
2018-02-10T09:19:21.350Z,104.50
2018-02-10T09:20:21.275Z,101.20
2018-02-10T09:21:21.228Z,91.80
2018-02-10T09:22:21.181Z,95.70
2018-02-10T09:23:21.162Z,100.10
2018-02-10T09:24:21.113Z,95.80
2018-02-10T09:25:21.064Z,96.80
2018-02-10T09:26:21.013Z,95.50
2018-02-10T09:27:20.972Z,90.90
2018-02-10T09:28:20.929Z,93.50
2018-02-10T09:29:20.889Z,98.60
2018-02-10T09:30:20.838Z,89.80
2018-02-10T09:31:20.797Z,99.40
2018-02-10T09:32:20.761Z,92.10
2018-02-10T09:33:20.712Z,99.70
2018-02-10T09:34:20.676Z,97.40
2018-02-10T09:35:20.630Z,92.80
2018-02-10T09:36:20.590Z,99.20
2018-02-10T09:37:20.548Z,93.50
2018-02-10T09:38:20.497Z,97.70
2018-02-10T09:39:20.459Z,98.40
2018-02-10T09:40:20.416Z,95.90
2018-02-10T09:41:20.373Z,96.60
2018-02-10T09:42:20.340Z,94.20
2018-02-10T09:43:20.333Z,92.40
2018-02-10T09:44:20.248Z,92.60
2018-02-10T09:45:20.201Z,95.50
2018-02-10T09:46:20.162Z,93.30
2018-02-10T09:47:20.118Z,96.80
2018-02-10T09:48:20.083Z,103.20
2018-02-10T09:49:20.029Z,100.60
2018-02-10T09:50:19.989Z,100.60
2018-02-10T09:51:19.956Z,97.80
2018-02-10T09:52:19.906Z,97.30
2018-02-10T09:53:19.865Z,95.20
2018-02-10T09:54:19.823Z,93.90
2018-02-10T09:55:19.789Z,98.80
2018-02-10T09:56:19.734Z,99.30
2018-02-10T09:57:19.699Z,93.10
2018-02-10T09:58:19.658Z,99.90
2018-02-10T09:59:19.609Z,98.50
2018-02-10T10:00:19.570Z,96.10
2018-02-10T10:01:19.524Z,107.40
2018-02-10T10:02:19.486Z,101.30
2018-02-10T10:03:19.441Z,98.00
2018-02-10T10:04:19.398Z,97.10
2018-02-10T10:05:19.357Z,101.20
2018-02-10T10:06:19.320Z,100.60
2018-02-10T10:07:19.277Z,95.80
2018-02-10T10:08:19.229Z,95.30
2018-02-10T10:09:19.188Z,97.20
2018-02-10T10:10:19.147Z,98.10
2018-02-10T10:11:19.112Z,99.00
2018-02-10T10:12:19.079Z,103.60
2018-02-10T10:13:19.019Z,99.50
2018-02-10T10:14:18.981Z,95.90
2018-02-10T10:15:18.939Z,97.30
2018-02-10T10:16:18.896Z,97.40
2018-02-10T10:17:18.869Z,95.10
2018-02-10T10:18:18.813Z,96.70
2018-02-10T10:19:18.775Z,99.20
2018-02-10T10:20:18.730Z,97.60
2018-02-10T10:21:18.695Z,99.10
2018-02-10T10:22:18.644Z,97.20
2018-02-10T10:23:18.601Z,99.00
2018-02-10T10:24:18.565Z,97.30
2018-02-10T10:25:18.519Z,95.50
2018-02-10T10:26:18.481Z,98.60
2018-02-10T10:27:18.436Z,98.30
2018-02-10T10:28:18.402Z,104.80
2018-02-10T10:29:18.352Z,102.70
2018-02-10T10:30:18.313Z,94.90
2018-02-10T10:31:18.274Z,96.50
2018-02-10T10:32:18.227Z,99.00
2018-02-10T10:33:18.187Z,94.70
2018-02-10T10:34:18.155Z,99.30
2018-02-10T10:35:18.127Z,94.40
2018-02-10T10:36:18.070Z,89.70
2018-02-10T10:37:18.048Z,99.30
2018-02-10T10:38:17.989Z,103.80
2018-02-10T10:39:17.934Z,103.30
2018-02-10T10:40:17.920Z,98.00
2018-02-10T10:41:17.852Z,92.90
2018-02-10T10:42:17.811Z,94.10
2018-02-10T10:43:17.772Z,102.00
2018-02-10T10:44:17.738Z,93.00
2018-02-10T10:45:17.686Z,98.90
2018-02-10T10:46:17.645Z,101.60
2018-02-10T10:47:17.605Z,97.90
2018-02-10T10:48:17.561Z,99.10
2018-02-10T10:49:17.520Z,96.50
2018-02-10T10:50:17.484Z,93.80
2018-02-10T10:51:17.439Z,92.20
2018-02-10T10:52:17.409Z,97.60
2018-02-10T10:53:17.354Z,88.80
2018-02-10T10:54:17.312Z,93.30
2018-02-10T10:55:17.276Z,87.30
2018-02-10T10:56:17.229Z,88.10
2018-02-10T10:57:17.185Z,88.60
2018-02-10T10:58:17.144Z,95.10
2018-02-10T10:59:17.100Z,87.80
2018-02-10T11:00:17.065Z,89.30
2018-02-10T11:01:17.020Z,93.30
2018-02-10T11:02:16.983Z,90.20
2018-02-10T11:03:16.938Z,84.10
2018-02-10T11:04:16.899Z,89.30
2018-02-10T11:05:16.853Z,88.70
2018-02-10T11:06:16.811Z,94.40
2018-02-10T11:07:16.773Z,91.70
2018-02-10T11:08:16.726Z,98.60
2018-02-10T11:09:16.687Z,85.80
2018-02-10T11:10:16.648Z,88.30
2018-02-10T11:11:16.627Z,84.60
2018-02-10T11:12:16.565Z,82.90
2018-02-10T11:13:16.520Z,83.10
2018-02-10T11:14:16.498Z,85.00
2018-02-10T11:15:16.437Z,82.60
2018-02-10T11:16:16.395Z,83.20
2018-02-10T11:17:16.362Z,82.00
2018-02-10T11:18:16.311Z,80.30
2018-02-10T11:19:16.272Z,78.70
2018-02-10T11:20:16.231Z,84.10
2018-02-10T11:21:16.185Z,81.10
2018-02-10T11:22:16.184Z,80.70
2018-02-10T11:23:16.134Z,86.20
2018-02-10T11:24:16.061Z,86.00
2018-02-10T11:25:16.020Z,80.30
2018-02-10T11:26:15.980Z,87.80
2018-02-10T11:27:15.941Z,83.20
2018-02-10T11:28:15.903Z,76.70
2018-02-10T11:29:15.862Z,75.10
2018-02-10T11:30:15.817Z,80.70
2018-02-10T11:31:15.772Z,79.80
2018-02-10T11:32:15.740Z,76.80
2018-02-10T11:33:15.691Z,78.90
2018-02-10T11:34:15.659Z,81.40
2018-02-10T11:35:15.608Z,77.20
2018-02-10T11:36:15.567Z,77.20
2018-02-10T11:37:15.524Z,75.60
2018-02-10T11:38:15.487Z,75.20
2018-02-10T11:39:15.445Z,74.40
2018-02-10T11:40:15.405Z,76.60
2018-02-10T11:41:15.362Z,74.70
2018-02-10T11:42:15.321Z,73.40
2018-02-10T11:43:15.279Z,66.70
2018-02-10T11:44:15.248Z,73.40
2018-02-10T11:45:15.198Z,70.30
2018-02-10T11:46:15.181Z,70.70
2018-02-10T11:47:15.124Z,70.10
2018-02-10T11:48:15.086Z,70.70
2018-02-10T11:49:15.044Z,68.60
2018-02-10T11:50:14.990Z,71.20
2018-02-10T11:51:14.955Z,70.50
2018-02-10T11:52:14.934Z,72.90
2018-02-10T11:53:14.869Z,72.30
2018-02-10T11:54:14.829Z,74.10
2018-02-10T11:55:14.805Z,67.40
2018-02-10T11:56:14.748Z,69.30
2018-02-10T11:57:14.716Z,66.20
2018-02-10T11:58:14.668Z,69.70
2018-02-10T11:59:14.627Z,65.50
2018-02-10T12:00:14.586Z,66.60
2018-02-10T12:01:14.551Z,68.10
2018-02-10T12:02:14.504Z,65.10
2018-02-10T12:03:14.468Z,65.50
2018-02-10T12:04:14.424Z,64.50
2018-02-10T12:05:14.380Z,74.40
2018-02-10T12:06:14.343Z,72.30
2018-02-10T12:07:14.302Z,70.40
2018-02-10T12:08:14.268Z,65.00
2018-02-10T12:09:14.219Z,68.40
2018-02-10T12:10:14.179Z,71.40
2018-02-10T12:11:14.147Z,68.80
2018-02-10T12:12:14.094Z,66.40
2018-02-10T12:13:14.054Z,68.90
2018-02-10T12:14:14.016Z,67.20
2018-02-10T12:15:13.982Z,75.20
2018-02-10T12:16:13.934Z,68.90
2018-02-10T12:17:13.933Z,64.10
2018-02-10T12:18:13.855Z,66.50
2018-02-10T12:19:13.812Z,66.00
2018-02-10T12:20:13.776Z,61.70
2018-02-10T12:21:13.730Z,66.90
2018-02-10T12:22:13.692Z,61.80
2018-02-10T12:23:13.649Z,70.30
2018-02-10T12:24:13.612Z,65.80
2018-02-10T12:25:13.572Z,67.00
2018-02-10T12:26:13.528Z,62.90
2018-02-10T12:27:13.501Z,51.80
2018-02-10T12:28:13.449Z,52.60
2018-02-10T12:29:13.405Z,51.40
2018-02-10T12:30:13.369Z,51.40
2018-02-10T12:31:13.330Z,46.30
2018-02-10T12:32:13.285Z,50.20
2018-02-10T12:33:13.251Z,56.70
2018-02-10T12:34:13.204Z,49.10
2018-02-10T12:35:13.164Z,46.60
2018-02-10T12:36:13.122Z,50.50